Time;durP1;ratioP1;P1;durP2;ratioP2;P2;SDS_P1;SDS_P2;PMS_P1;PMS_P2;Temp;Humidity;BMP_temperature;BMP_pressure;BME280_temperature;BME280_humidity;BME280_pressure;Samples;Min_cycle;Max_cycle;Signal;HPM_P1;HPM_P2
2024/01/28 00:00:16;;;;;;;27.52;19.05;;;-0.30;99.90;;;;;;4951549;28;20046;-79
2024/01/28 00:02:43;;;;;;;33.40;19.50;;;-0.40;99.90;;;;;;4956804;28;20049;-79
2024/01/28 00:05:13;;;;;;;32.80;20.30;;;-0.50;99.90;;;;;;4974256;28;20073;-78
2024/01/28 00:07:40;;;;;;;32.75;21.85;;;-0.70;99.90;;;;;;4970010;28;20053;-79
2024/01/28 00:10:07;;;;;;;31.90;20.95;;;-0.80;99.90;;;;;;4969013;28;20042;-79
2024/01/28 00:12:34;;;;;;;39.22;20.42;;;-0.70;99.90;;;;;;4977938;28;20034;-78
2024/01/28 00:15:02;;;;;;;35.50;21.17;;;-0.90;99.90;;;;;;4954704;28;20052;-78
2024/01/28 00:17:29;;;;;;;42.40;23.00;;;-0.90;99.90;;;;;;4951455;28;20078;-79
2024/01/28 00:19:56;;;;;;;37.55;23.67;;;-1.00;99.90;;;;;;4976814;28;20229;-78
2024/01/28 00:22:23;;;;;;;47.95;25.02;;;-1.10;99.90;;;;;;4962310;28;20046;-79
2024/01/28 00:24:50;;;;;;;45.33;25.80;;;-1.20;99.90;;;;;;4975808;28;20053;-79
2024/01/28 00:27:17;;;;;;;54.05;26.63;;;-1.30;99.90;;;;;;4969808;28;21054;-79
2024/01/28 00:29:44;;;;;;;47.00;28.63;;;-1.30;99.90;;;;;;4973519;28;20057;-79
2024/01/28 00:32:10;;;;;;;47.08;26.85;;;-1.20;99.90;;;;;;4970250;28;20049;-79
2024/01/28 00:34:37;;;;;;;36.25;24.65;;;-1.10;99.90;;;;;;4975511;28;20069;-79
2024/01/28 00:37:04;;;;;;;42.60;24.67;;;-1.10;99.90;;;;;;4976275;28;20039;-79
2024/01/28 00:39:31;;;;;;;35.40;22.98;;;-0.90;99.90;;;;;;4946373;28;20038;-79
2024/01/28 00:41:59;;;;;;;45.83;21.92;;;-0.80;99.90;;;;;;4966834;28;20514;-79
2024/01/28 00:44:26;;;;;;;36.90;22.25;;;-0.70;99.90;;;;;;4970124;28;20089;-79
2024/01/28 00:46:55;;;;;;;35.67;21.88;;;-0.70;99.90;;;;;;4942537;28;20061;-79
2024/01/28 00:49:29;;;;;;;44.28;22.35;;;-0.80;99.90;;;;;;4987490;28;20156;-79
2024/01/28 00:51:56;;;;;;;30.35;23.30;;;-0.60;99.90;;;;;;4976186;28;20070;-79
2024/01/28 00:54:23;;;;;;;37.55;22.85;;;-0.80;99.90;;;;;;4970392;28;20045;-79
2024/01/28 00:56:54;;;;;;;37.92;23.38;;;-0.80;99.90;;;;;;4993098;28;20132;-79
2024/01/28 00:59:21;;;;;;;34.95;24.60;;;-0.70;99.90;;;;;;4983305;28;20054;-78
2024/01/28 01:01:48;;;;;;;35.70;24.58;;;-0.70;99.90;;;;;;4969642;28;20038;-79
2024/01/28 01:04:15;;;;;;;46.10;26.48;;;-0.90;99.90;;;;;;4990379;28;20034;-79
2024/01/28 01:06:43;;;;;;;44.38;25.05;;;-0.90;99.90;;;;;;4971832;28;20048;-78
2024/01/28 01:09:10;;;;;;;37.58;26.42;;;-1.00;99.90;;;;;;4983331;28;20112;-79
2024/01/28 01:11:37;;;;;;;40.45;25.27;;;-1.00;99.90;;;;;;4972150;28;20132;-79
2024/01/28 01:14:04;;;;;;;38.35;24.80;;;-1.00;99.90;;;;;;4973112;28;20046;-78
2024/01/28 01:16:30;;;;;;;49.58;28.52;;;-0.80;99.90;;;;;;4981663;28;20167;-78
2024/01/28 01:18:57;;;;;;;46.30;24.58;;;-0.90;99.90;;;;;;4961628;28;20041;-79
2024/01/28 01:21:24;;;;;;;43.72;26.20;;;-0.80;99.90;;;;;;4945854;28;21451;-78
2024/01/28 01:23:51;;;;;;;43.17;25.80;;;-0.80;99.90;;;;;;4973372;28;20128;-79
2024/01/28 01:26:17;;;;;;;41.95;26.00;;;-0.80;99.90;;;;;;4955185;28;20053;-78
2024/01/28 01:28:44;;;;;;;50.83;26.90;;;-0.80;99.90;;;;;;4968002;28;20060;-78
2024/01/28 01:31:11;;;;;;;46.45;26.33;;;-0.70;99.90;;;;;;4959132;28;20072;-77
2024/01/28 01:33:38;;;;;;;37.53;26.58;;;-0.80;99.90;;;;;;4971346;28;20064;-78
2024/01/28 01:36:06;;;;;;;33.25;25.80;;;-0.80;99.90;;;;;;4961051;28;20069;-79
2024/01/28 01:38:32;;;;;;;36.13;26.35;;;-0.80;99.90;;;;;;4956624;28;20101;-78
2024/01/28 01:40:59;;;;;;;44.88;27.75;;;-0.80;99.90;;;;;;4971177;28;20056;-78
2024/01/28 01:43:26;;;;;;;48.53;28.00;;;-0.80;99.90;;;;;;4963408;28;20237;-78
2024/01/28 01:45:53;;;;;;;46.78;28.35;;;-0.80;99.90;;;;;;4950464;28;20068;-77
2024/01/28 01:48:20;;;;;;;53.70;30.02;;;-0.90;99.90;;;;;;4998293;28;20050;-77
2024/01/28 01:50:47;;;;;;;44.00;28.42;;;-0.90;99.90;;;;;;4995666;28;20041;-78
2024/01/28 01:53:14;;;;;;;50.55;28.85;;;-1.00;99.90;;;;;;4989762;28;20104;-78
2024/01/28 01:55:41;;;;;;;37.17;28.35;;;-0.90;99.90;;;;;;4955455;28;20124;-79
2024/01/28 01:58:09;;;;;;;48.22;25.15;;;-0.90;99.90;;;;;;4956632;28;20046;-78
2024/01/28 02:00:37;;;;;;;42.88;27.60;;;-0.80;99.90;;;;;;4971608;28;20046;-79
2024/01/28 02:03:04;;;;;;;42.80;26.98;;;-0.60;99.90;;;;;;4981701;28;20042;-78
2024/01/28 02:05:31;;;;;;;41.92;26.13;;;-0.50;99.90;;;;;;4983498;28;20046;-79
2024/01/28 02:07:58;;;;;;;29.83;22.52;;;-0.40;99.90;;;;;;4985302;28;20065;-79
2024/01/28 02:10:25;;;;;;;45.47;25.30;;;-0.30;99.90;;;;;;4974666;28;26258;-79
2024/01/28 02:12:52;;;;;;;38.63;25.35;;;-0.20;99.90;;;;;;4956191;28;20053;-79
2024/01/28 02:15:19;;;;;;;33.80;24.80;;;-0.30;99.90;;;;;;4964295;28;20039;-79
2024/01/28 02:17:46;;;;;;;43.95;25.23;;;-0.30;99.90;;;;;;4984056;28;20042;-79
2024/01/28 02:20:13;;;;;;;34.22;24.92;;;-0.30;99.90;;;;;;4966412;28;20449;-78
2024/01/28 02:22:40;;;;;;;41.95;26.85;;;-0.20;99.90;;;;;;4962951;28;20096;-77
2024/01/28 02:25:07;;;;;;;41.15;25.05;;;-0.10;99.90;;;;;;4972285;28;20100;-78
2024/01/28 02:27:35;;;;;;;34.50;26.20;;;-0.10;99.90;;;;;;4968918;28;20042;-78
2024/01/28 02:30:03;;;;;;;50.83;25.55;;;-0.10;99.90;;;;;;4986217;28;20046;-78
2024/01/28 02:32:30;;;;;;;40.58;26.70;;;-0.10;99.90;;;;;;4966451;28;20136;-78
2024/01/28 02:34:57;;;;;;;40.40;26.92;;;0.00;99.90;;;;;;4953315;28;20046;-78
2024/01/28 02:37:24;;;;;;;43.78;28.90;;;0.00;99.90;;;;;;4985569;28;20056;-78
2024/01/28 02:39:51;;;;;;;33.97;27.38;;;0.00;99.90;;;;;;4967773;28;20035;-78
2024/01/28 02:42:18;;;;;;;36.17;26.50;;;0.00;99.90;;;;;;4962148;28;20108;-78
2024/01/28 02:44:45;;;;;;;39.75;26.92;;;-0.10;99.90;;;;;;4966401;28;20186;-81
2024/01/28 02:47:12;;;;;;;43.35;25.20;;;0.10;99.90;;;;;;4981513;28;20521;-78
2024/01/28 02:49:39;;;;;;;35.17;26.38;;;0.10;99.90;;;;;;4965409;28;20030;-78
2024/01/28 02:52:06;;;;;;;34.00;24.77;;;0.40;99.90;;;;;;4967246;28;20112;-78
2024/01/28 02:54:33;;;;;;;45.58;24.45;;;0.40;99.90;;;;;;4963185;28;20046;-77
2024/01/28 02:57:00;;;;;;;35.58;24.50;;;0.50;99.90;;;;;;4955781;28;20046;-77
2024/01/28 02:59:28;;;;;;;37.80;22.88;;;0.50;99.90;;;;;;4953683;28;20054;-80
2024/01/28 03:01:54;;;;;;;30.00;24.00;;;0.20;99.90;;;;;;4971949;28;20034;-81
2024/01/28 03:04:21;;;;;;;33.20;23.45;;;0.10;99.90;;;;;;4951301;28;20049;-78
2024/01/28 03:06:48;;;;;;;46.60;24.63;;;0.10;99.90;;;;;;4972205;28;20045;-78
2024/01/28 03:09:17;;;;;;;36.92;24.10;;;0.00;99.90;;;;;;4971654;28;20049;-77
2024/01/28 03:11:44;;;;;;;36.90;24.25;;;0.00;99.90;;;;;;4973412;28;20046;-78
2024/01/28 03:14:11;;;;;;;36.97;25.00;;;0.00;99.90;;;;;;4968034;28;20042;-77
2024/01/28 03:16:38;;;;;;;28.58;23.67;;;0.10;99.90;;;;;;4966852;28;20100;-78
2024/01/28 03:19:05;;;;;;;38.47;24.02;;;0.20;99.90;;;;;;4995311;28;20078;-78
2024/01/28 03:21:32;;;;;;;34.15;22.70;;;0.30;99.90;;;;;;4988372;28;20041;-78
2024/01/28 03:23:59;;;;;;;26.42;23.13;;;0.40;99.90;;;;;;4975150;28;20034;-78
2024/01/28 03:26:26;;;;;;;39.17;22.33;;;0.40;99.90;;;;;;4982778;28;20100;-78
2024/01/28 03:28:53;;;;;;;30.13;21.33;;;0.60;99.90;;;;;;4972917;28;20131;-78
2024/01/28 03:31:19;;;;;;;26.83;18.98;;;0.60;99.90;;;;;;4971857;28;20081;-78
2024/01/28 03:33:46;;;;;;;34.38;20.10;;;0.70;99.90;;;;;;4990894;28;20133;-78
2024/01/28 03:36:13;;;;;;;39.08;19.50;;;0.70;99.90;;;;;;4989292;28;20053;-79
2024/01/28 03:38:40;;;;;;;34.20;19.40;;;0.80;99.90;;;;;;4975194;28;20473;-79
2024/01/28 03:41:07;;;;;;;29.33;17.77;;;0.70;99.90;;;;;;4957855;28;20069;-78
2024/01/28 03:43:34;;;;;;;31.65;16.85;;;0.80;99.90;;;;;;4965857;28;20084;-79
2024/01/28 03:46:02;;;;;;;25.30;15.65;;;0.90;99.90;;;;;;4949624;28;20138;-79
2024/01/28 03:48:28;;;;;;;43.85;16.55;;;0.90;99.90;;;;;;4989410;28;20034;-79
2024/01/28 03:50:56;;;;;;;31.15;16.33;;;0.90;99.90;;;;;;4991372;28;20038;-78
2024/01/28 03:53:22;;;;;;;21.15;14.73;;;0.90;99.90;;;;;;4967881;28;20095;-79
2024/01/28 03:55:49;;;;;;;28.60;16.00;;;0.90;99.90;;;;;;4988682;28;20042;-79
2024/01/28 03:58:16;;;;;;;36.30;16.73;;;1.00;99.90;;;;;;4990772;28;20037;-79
2024/01/28 04:00:43;;;;;;;24.52;13.95;;;1.00;99.90;;;;;;4969480;28;20049;-79
2024/01/28 04:03:10;;;;;;;22.45;13.65;;;0.90;99.90;;;;;;4959590;28;20541;-79
2024/01/28 04:05:37;;;;;;;34.00;14.65;;;1.00;99.90;;;;;;4968590;28;20042;-79
2024/01/28 04:08:08;;;;;;;19.67;12.82;;;1.00;99.90;;;;;;4970327;28;20050;-79
2024/01/28 04:10:35;;;;;;;29.67;14.00;;;1.00;99.90;;;;;;4956324;28;20054;-77
2024/01/28 04:13:02;;;;;;;29.30;13.55;;;1.00;99.90;;;;;;4976217;28;20764;-80
2024/01/28 04:15:28;;;;;;;27.52;13.65;;;1.10;99.90;;;;;;4981962;28;20115;-79
2024/01/28 04:17:55;;;;;;;25.88;13.35;;;1.00;99.90;;;;;;4970345;28;20593;-79
2024/01/28 04:20:22;;;;;;;32.65;14.50;;;1.00;99.90;;;;;;4970109;28;20053;-79
2024/01/28 04:22:49;;;;;;;24.00;13.68;;;1.00;99.90;;;;;;4970709;28;20046;-79
2024/01/28 04:25:18;;;;;;;21.00;13.45;;;1.00;99.90;;;;;;4953153;28;20100;-79
2024/01/28 04:27:45;;;;;;;31.67;14.48;;;1.00;99.90;;;;;;4986686;28;20612;-79
2024/01/28 04:30:12;;;;;;;23.73;13.45;;;1.00;99.90;;;;;;4989173;28;20060;-79
2024/01/28 04:32:43;;;;;;;32.58;14.27;;;1.00;99.90;;;;;;4971131;28;20045;-79
2024/01/28 04:35:11;;;;;;;27.02;14.48;;;1.10;99.90;;;;;;4972783;28;20053;-79
2024/01/28 04:37:39;;;;;;;24.70;14.20;;;1.10;99.90;;;;;;4965550;28;20720;-79
2024/01/28 04:40:07;;;;;;;25.08;13.68;;;1.00;99.90;;;;;;4970784;28;20050;-79
2024/01/28 04:42:34;;;;;;;27.48;13.77;;;1.10;99.90;;;;;;4967448;28;20072;-78
2024/01/28 04:45:02;;;;;;;21.30;11.98;;;1.10;99.90;;;;;;4980562;28;20038;-79
2024/01/28 04:47:29;;;;;;;24.25;12.25;;;1.10;99.90;;;;;;4969242;28;20034;-79
2024/01/28 04:49:56;;;;;;;24.65;13.13;;;1.10;99.90;;;;;;4963318;28;20046;-79
2024/01/28 04:52:23;;;;;;;29.25;12.32;;;1.10;99.90;;;;;;4966259;28;20046;-79
2024/01/28 04:54:50;;;;;;;23.98;11.88;;;1.20;99.90;;;;;;4954628;28;20050;-79
2024/01/28 04:57:17;;;;;;;21.85;11.05;;;1.20;99.90;;;;;;4988145;28;20072;-79
2024/01/28 04:59:44;;;;;;;21.92;12.27;;;1.20;99.90;;;;;;4970432;28;20056;-79
2024/01/28 05:02:11;;;;;;;23.73;11.95;;;1.20;99.90;;;;;;4969303;28;20201;-78
2024/01/28 05:04:37;;;;;;;16.05;10.55;;;1.20;99.90;;;;;;4967400;28;20050;-79
2024/01/28 05:07:05;;;;;;;24.90;13.15;;;1.10;99.90;;;;;;4971987;28;20104;-79
2024/01/28 05:09:31;;;;;;;17.63;11.52;;;1.20;99.90;;;;;;4983738;28;20056;-79
2024/01/28 05:11:59;;;;;;;21.70;12.52;;;1.20;99.90;;;;;;4973398;28;20053;-79
2024/01/28 05:14:26;;;;;;;20.23;14.35;;;1.20;99.90;;;;;;4967182;28;20080;-79
2024/01/28 05:16:53;;;;;;;23.10;13.13;;;1.20;99.90;;;;;;4967605;28;20054;-79
2024/01/28 05:19:20;;;;;;;25.38;14.63;;;1.20;99.90;;;;;;4971398;28;20498;-79
2024/01/28 05:21:47;;;;;;;26.95;14.60;;;1.10;99.90;;;;;;4969774;28;20205;-79
2024/01/28 05:24:13;;;;;;;21.45;13.05;;;1.10;99.90;;;;;;4988640;28;20410;-79
2024/01/28 05:26:41;;;;;;;16.70;13.23;;;1.10;99.90;;;;;;4969131;28;20635;-79
2024/01/28 05:29:08;;;;;;;28.23;13.27;;;1.20;99.90;;;;;;4974989;28;20050;-77
2024/01/28 05:31:35;;;;;;;23.08;14.32;;;1.20;99.90;;;;;;4961225;28;20047;-78
2024/01/28 05:34:02;;;;;;;21.50;14.38;;;1.20;99.90;;;;;;4971431;28;20478;-78
2024/01/28 05:36:29;;;;;;;17.13;14.18;;;1.20;99.90;;;;;;4967774;28;20037;-79
2024/01/28 05:38:57;;;;;;;30.00;14.35;;;1.30;99.90;;;;;;4973300;28;20054;-79
2024/01/28 05:41:24;;;;;;;27.17;14.75;;;1.30;99.90;;;;;;4948674;28;20486;-79
2024/01/28 05:43:50;;;;;;;22.08;14.05;;;1.30;99.90;;;;;;4986717;28;20054;-78
2024/01/28 05:46:17;;;;;;;28.25;15.00;;;1.30;99.90;;;;;;4966116;28;20046;-78
2024/01/28 05:48:44;;;;;;;24.00;14.20;;;1.30;99.90;;;;;;4970679;28;20568;-79
2024/01/28 05:51:12;;;;;;;15.77;14.07;;;1.30;99.90;;;;;;4971681;28;20042;-78
2024/01/28 05:53:38;;;;;;;16.95;13.32;;;1.20;99.90;;;;;;4984033;28;20372;-79
2024/01/28 05:56:06;;;;;;;17.73;14.23;;;1.20;99.90;;;;;;4972452;28;20049;-79
2024/01/28 05:58:33;;;;;;;20.38;14.63;;;1.20;99.90;;;;;;4957178;28;20078;-78
2024/01/28 06:01:05;;;;;;;24.23;13.90;;;1.20;99.90;;;;;;4970870;28;21546;-77
2024/01/28 06:03:33;;;;;;;18.38;13.55;;;1.30;99.90;;;;;;4944537;28;20452;-78
2024/01/28 06:06:01;;;;;;;24.67;14.73;;;1.30;99.90;;;;;;4959067;28;20676;-79
2024/01/28 06:08:29;;;;;;;16.95;14.40;;;1.40;99.90;;;;;;4970371;28;20064;-79
2024/01/28 06:10:57;;;;;;;17.13;13.90;;;1.30;99.90;;;;;;4955744;28;20149;-79
2024/01/28 06:13:24;;;;;;;22.92;15.27;;;1.30;99.90;;;;;;4985606;28;20062;-79
2024/01/28 06:15:52;;;;;;;18.80;15.38;;;1.30;99.90;;;;;;4960813;28;20058;-78
2024/01/28 06:18:20;;;;;;;20.55;14.90;;;1.30;99.90;;;;;;4970555;28;20046;-78
2024/01/28 06:20:47;;;;;;;16.83;14.93;;;1.30;99.90;;;;;;4972289;28;20137;-79
2024/01/28 06:23:14;;;;;;;20.05;15.80;;;1.30;99.90;;;;;;4963184;28;20054;-79
2024/01/28 06:25:40;;;;;;;21.50;15.07;;;1.30;99.90;;;;;;4966189;28;20053;-79
2024/01/28 06:28:07;;;;;;;20.08;15.25;;;1.20;99.90;;;;;;4971844;28;20050;-79
2024/01/28 06:30:35;;;;;;;22.20;15.40;;;1.20;99.90;;;;;;4986919;28;20062;-78
2024/01/28 06:33:03;;;;;;;18.30;14.90;;;1.20;99.90;;;;;;4966377;28;20041;-78
2024/01/28 06:35:30;;;;;;;17.85;15.57;;;1.30;99.90;;;;;;4971913;28;20053;-78
2024/01/28 06:37:57;;;;;;;17.45;14.88;;;1.30;99.90;;;;;;4972816;28;20082;-78
2024/01/28 06:40:24;;;;;;;17.33;14.30;;;1.40;99.90;;;;;;4971073;28;20058;-78
2024/01/28 06:42:51;;;;;;;22.05;15.40;;;1.50;99.90;;;;;;4950007;28;20042;-78
2024/01/28 06:45:19;;;;;;;15.60;14.43;;;1.50;99.90;;;;;;4957062;28;20569;-79
2024/01/28 06:47:46;;;;;;;20.58;15.73;;;1.50;99.90;;;;;;4971138;28;20518;-78
2024/01/28 06:50:13;;;;;;;25.88;16.40;;;1.60;99.90;;;;;;4975765;28;20050;-78
2024/01/28 06:52:42;;;;;;;17.75;15.68;;;1.70;99.90;;;;;;4991302;28;20077;-78
2024/01/28 06:55:09;;;;;;;17.80;16.10;;;1.70;99.90;;;;;;4956292;28;20125;-78
2024/01/28 06:57:36;;;;;;;18.95;17.00;;;1.80;99.90;;;;;;4969397;28;20038;-78
2024/01/28 07:00:05;;;;;;;19.85;17.90;;;1.80;99.90;;;;;;4977838;28;20045;-78
2024/01/28 07:02:32;;;;;;;18.77;16.98;;;1.90;99.90;;;;;;4955393;28;20049;-79
2024/01/28 07:04:59;;;;;;;18.65;16.67;;;1.90;99.90;;;;;;4974342;28;20045;-78
2024/01/28 07:07:26;;;;;;;20.50;18.58;;;1.90;99.90;;;;;;4971119;28;20037;-78
2024/01/28 07:09:53;;;;;;;20.38;17.60;;;2.00;99.90;;;;;;4974049;28;20124;-78
2024/01/28 07:12:20;;;;;;;19.30;17.60;;;2.00;99.90;;;;;;4961142;28;20052;-78
2024/01/28 07:14:46;;;;;;;19.58;17.77;;;2.00;99.90;;;;;;4975100;28;20124;-76
2024/01/28 07:17:13;;;;;;;20.65;17.35;;;2.00;99.90;;;;;;4986069;28;20054;-76
2024/01/28 07:19:41;;;;;;;20.40;18.45;;;2.00;99.90;;;;;;4987457;28;20050;-76
2024/01/28 07:22:11;;;;;;;19.83;18.30;;;1.90;99.90;;;;;;4987253;28;20084;-77
2024/01/28 07:24:38;;;;;;;21.15;19.25;;;1.80;99.90;;;;;;4982485;28;20092;-77
2024/01/28 07:27:05;;;;;;;21.50;19.52;;;1.80;99.90;;;;;;4982221;28;20052;-76
2024/01/28 07:29:32;;;;;;;20.88;18.77;;;1.80;99.90;;;;;;4986570;28;20065;-76
2024/01/28 07:31:59;;;;;;;22.65;20.58;;;1.70;99.90;;;;;;4987884;28;20065;-79
2024/01/28 07:34:26;;;;;;;23.33;21.50;;;1.70;99.90;;;;;;4971387;28;20045;-76
2024/01/28 07:36:56;;;;;;;23.20;20.77;;;1.70;99.90;;;;;;4968201;28;20609;-77
2024/01/28 07:39:24;;;;;;;21.88;19.75;;;1.60;99.90;;;;;;4973632;28;20077;-77
2024/01/28 07:41:51;;;;;;;32.03;21.35;;;1.60;99.90;;;;;;4988747;28;20132;-77
2024/01/28 07:44:18;;;;;;;23.75;21.48;;;1.40;99.90;;;;;;4968490;28;20062;-78
2024/01/28 07:46:47;;;;;;;23.73;21.23;;;1.40;99.90;;;;;;4965939;28;20101;-77
2024/01/28 07:49:13;;;;;;;21.80;19.95;;;1.40;99.90;;;;;;4991710;28;20046;-77
2024/01/28 07:51:40;;;;;;;22.48;20.10;;;1.50;99.90;;;;;;4988433;28;20066;-78
2024/01/28 07:54:07;;;;;;;22.65;20.48;;;1.50;99.90;;;;;;4969388;28;20588;-77
2024/01/28 07:56:34;;;;;;;22.25;19.48;;;1.50;99.90;;;;;;4964868;28;20605;-78
2024/01/28 07:59:01;;;;;;;21.67;20.17;;;1.70;99.90;;;;;;4989627;28;20058;-80
2024/01/28 08:01:30;;;;;;;22.42;20.23;;;1.70;99.90;;;;;;4971989;28;20086;-78
2024/01/28 08:03:57;;;;;;;28.33;21.63;;;1.80;99.90;;;;;;4956139;28;20034;-78
2024/01/28 08:06:24;;;;;;;23.80;21.55;;;1.90;99.90;;;;;;4970966;28;20047;-77
2024/01/28 08:08:52;;;;;;;25.85;22.50;;;1.90;99.90;;;;;;4970974;28;20179;-77
2024/01/28 08:11:19;;;;;;;24.50;22.52;;;1.90;99.90;;;;;;4957720;28;20069;-78
2024/01/28 08:13:48;;;;;;;24.13;22.17;;;1.90;99.90;;;;;;4967424;28;20065;-77
2024/01/28 08:16:15;;;;;;;28.67;26.08;;;2.00;99.90;;;;;;4986281;28;20038;-77
2024/01/28 08:18:41;;;;;;;27.75;25.67;;;2.00;99.90;;;;;;4953540;28;20046;-77
2024/01/28 08:21:08;;;;;;;30.63;27.52;;;2.00;99.90;;;;;;4973429;28;20520;-77
2024/01/28 08:23:35;;;;;;;28.92;26.08;;;2.00;99.90;;;;;;4970923;28;20053;-77
2024/01/28 08:26:02;;;;;;;26.67;24.45;;;2.10;99.90;;;;;;4967420;28;20128;-80
2024/01/28 08:28:29;;;;;;;27.00;23.70;;;2.10;99.90;;;;;;4988234;28;20050;-77
2024/01/28 08:30:56;;;;;;;26.70;23.83;;;2.10;99.90;;;;;;4968978;28;20042;-78
2024/01/28 08:33:22;;;;;;;27.27;25.02;;;2.20;99.90;;;;;;4970175;28;20545;-77
2024/01/28 08:35:49;;;;;;;28.55;25.02;;;2.20;99.90;;;;;;4970341;28;20042;-78
2024/01/28 08:38:16;;;;;;;26.42;24.17;;;2.30;99.90;;;;;;4964809;28;20049;-76
2024/01/28 08:40:43;;;;;;;28.20;25.63;;;2.60;99.90;;;;;;4989426;28;20135;-80
2024/01/28 08:43:09;;;;;;;30.30;27.63;;;2.70;99.90;;;;;;4969630;28;20068;-80
2024/01/28 08:45:36;;;;;;;27.55;25.58;;;2.80;99.90;;;;;;4963694;28;20121;-80
2024/01/28 08:48:04;;;;;;;29.13;26.63;;;2.90;99.90;;;;;;4983199;28;20865;-79
2024/01/28 08:50:30;;;;;;;30.50;27.67;;;3.10;99.90;;;;;;4958870;28;20054;-80
2024/01/28 08:52:57;;;;;;;31.35;28.27;;;3.20;99.90;;;;;;4948829;28;20042;-80
2024/01/28 08:55:24;;;;;;;30.42;27.83;;;3.10;99.90;;;;;;4969455;28;20630;-78
2024/01/28 08:57:51;;;;;;;31.98;28.63;;;3.20;99.90;;;;;;4951216;28;20101;-79
2024/01/28 09:00:18;;;;;;;31.02;28.42;;;3.30;99.90;;;;;;4948258;28;20054;-82
2024/01/28 09:02:45;;;;;;;33.30;30.05;;;3.60;99.90;;;;;;4972384;28;20046;-78
2024/01/28 09:05:12;;;;;;;34.17;31.23;;;3.70;99.90;;;;;;4967258;28;20046;-78
2024/01/28 09:07:41;;;;;;;32.90;30.50;;;4.00;99.90;;;;;;4967148;28;20073;-78
2024/01/28 09:10:09;;;;;;;34.60;32.28;;;4.10;99.90;;;;;;4985329;28;20960;-78
2024/01/28 09:12:35;;;;;;;35.08;32.30;;;4.30;99.90;;;;;;4973931;28;20034;-79
2024/01/28 09:15:02;;;;;;;33.28;31.10;;;4.60;99.90;;;;;;4965776;28;20056;-79
2024/01/28 09:17:29;;;;;;;33.45;31.30;;;4.70;99.90;;;;;;4967299;28;20050;-78
2024/01/28 09:19:56;;;;;;;31.10;28.65;;;4.70;99.90;;;;;;4968598;28;20129;-78
2024/01/28 09:22:23;;;;;;;36.40;33.60;;;5.00;99.90;;;;;;4963634;28;20042;-78
2024/01/28 09:24:50;;;;;;;35.67;33.33;;;4.90;99.90;;;;;;4968526;28;20053;-77
2024/01/28 09:27:17;;;;;;;39.80;37.08;;;5.00;99.90;;;;;;4964390;28;20642;-78
2024/01/28 09:29:44;;;;;;;38.80;36.15;;;5.10;99.90;;;;;;4969591;28;20100;-77
2024/01/28 09:32:11;;;;;;;39.22;36.38;;;5.10;99.90;;;;;;4970641;28;20548;-77
2024/01/28 09:34:38;;;;;;;37.88;35.28;;;5.10;99.90;;;;;;4986677;28;20045;-77
2024/01/28 09:37:07;;;;;;;38.33;35.78;;;5.10;99.90;;;;;;4965968;28;20089;-79
2024/01/28 09:39:34;;;;;;;41.95;38.90;;;5.20;99.90;;;;;;4950620;28;20049;-78
2024/01/28 09:42:11;;;;;;;41.88;38.63;;;5.40;99.90;;;;;;4944580;28;20061;-78
2024/01/28 09:44:38;;;;;;;41.88;38.95;;;5.40;99.90;;;;;;4969111;28;20126;-77
2024/01/28 09:47:06;;;;;;;39.85;37.47;;;5.50;99.90;;;;;;4946135;28;20046;-77
2024/01/28 09:49:39;;;;;;;38.03;35.38;;;5.40;99.90;;;;;;4984559;28;20649;-78
2024/01/28 09:52:09;;;;;;;38.83;35.30;;;5.30;99.90;;;;;;4972069;28;20278;-79
2024/01/28 09:54:44;;;;;;;38.70;35.60;;;5.50;99.90;;;;;;4951896;28;20129;-79
2024/01/28 09:57:12;;;;;;;37.55;34.88;;;5.50;99.90;;;;;;4970089;28;20045;-78
2024/01/28 09:59:38;;;;;;;38.47;34.97;;;5.60;99.90;;;;;;4970498;28;20045;-79
2024/01/28 10:02:06;;;;;;;39.83;36.30;;;5.70;99.90;;;;;;4965006;28;20065;-79
2024/01/28 10:04:34;;;;;;;38.60;35.45;;;5.60;99.90;;;;;;4961128;28;20513;-79
2024/01/28 10:07:02;;;;;;;37.85;35.05;;;5.50;99.90;;;;;;4967650;28;20041;-79
2024/01/28 10:09:30;;;;;;;40.75;37.55;;;5.80;99.90;;;;;;4953630;28;20073;-78
2024/01/28 10:11:59;;;;;;;34.83;31.58;;;5.70;99.90;;;;;;4981045;28;20052;-79
2024/01/28 10:14:27;;;;;;;42.22;31.23;;;5.70;99.90;;;;;;4969525;28;20529;-79
2024/01/28 10:16:57;;;;;;;30.50;28.00;;;5.70;99.90;;;;;;4977853;28;20398;-80
2024/01/28 10:19:24;;;;;;;34.08;31.42;;;6.00;99.90;;;;;;4953220;28;20046;-79
2024/01/28 10:21:51;;;;;;;27.75;25.15;;;5.90;99.90;;;;;;4963263;28;20073;-79
2024/01/28 10:24:19;;;;;;;42.97;39.50;;;5.90;99.90;;;;;;4969401;28;20140;-79
2024/01/28 10:26:46;;;;;;;35.13;32.17;;;6.00;99.90;;;;;;4985093;28;20042;-79
2024/01/28 10:29:13;;;;;;;32.92;29.67;;;6.00;99.90;;;;;;4984150;28;22071;-79
2024/01/28 10:31:40;;;;;;;29.70;27.23;;;6.10;99.90;;;;;;4949384;28;20065;-79
2024/01/28 10:34:09;;;;;;;36.80;33.47;;;6.20;99.90;;;;;;4967622;28;20673;-80
2024/01/28 10:36:37;;;;;;;33.20;30.50;;;6.10;99.90;;;;;;4967030;28;20136;-80
2024/01/28 10:39:04;;;;;;;34.70;31.73;;;6.20;99.90;;;;;;4966342;28;20064;-79
2024/01/28 10:41:32;;;;;;;33.35;30.58;;;6.20;99.90;;;;;;4967246;28;20319;-80
2024/01/28 10:44:07;;;;;;;34.65;31.55;;;6.20;99.90;;;;;;4956006;28;20565;-79
2024/01/28 10:46:39;;;;;;;34.35;31.95;;;6.30;99.90;;;;;;4978056;28;20050;-80
2024/01/28 10:49:10;;;;;;;34.45;31.52;;;6.40;99.90;;;;;;4985173;28;20048;-79
2024/01/28 10:51:39;;;;;;;34.70;31.80;;;6.60;99.90;;;;;;4946195;28;20111;-80
2024/01/28 10:54:08;;;;;;;32.25;30.02;;;6.50;99.90;;;;;;4965987;28;20050;-80
2024/01/28 10:56:39;;;;;;;31.60;29.42;;;6.50;99.90;;;;;;4955464;28;20498;-79
2024/01/28 10:59:07;;;;;;;31.83;29.63;;;6.50;99.90;;;;;;4966633;28;20050;-80
2024/01/28 11:01:35;;;;;;;33.15;30.42;;;6.60;99.90;;;;;;4965612;28;20060;-79
2024/01/28 11:04:04;;;;;;;32.13;29.52;;;6.70;99.90;;;;;;4961796;28;20042;-80
2024/01/28 11:06:31;;;;;;;30.15;28.05;;;6.70;99.90;;;;;;4948052;28;20046;-78
2024/01/28 11:08:59;;;;;;;30.10;27.25;;;6.80;99.90;;;;;;4958099;28;20042;-80
2024/01/28 11:11:27;;;;;;;31.60;28.92;;;6.90;99.90;;;;;;4984074;28;20134;-80
2024/01/28 11:13:55;;;;;;;31.38;29.00;;;7.00;99.90;;;;;;4952226;28;20050;-79
2024/01/28 11:16:22;;;;;;;30.65;28.23;;;7.10;99.90;;;;;;4966728;28;20107;-79
2024/01/28 11:18:57;;;;;;;30.65;28.10;;;7.10;99.90;;;;;;4959880;28;20054;-80
2024/01/28 11:21:25;;;;;;;;;;;6.90;99.90;;;;;;4971856;28;20129;-80
2024/01/28 11:23:54;;;;;;;30.38;27.85;;;6.80;99.90;;;;;;4955364;28;19926;-77
2024/01/28 11:26:21;;;;;;;32.35;29.50;;;6.90;99.90;;;;;;4952762;28;20043;-81
2024/01/28 11:28:53;;;;;;;33.33;30.73;;;6.90;99.90;;;;;;4971823;28;20046;-80
2024/01/28 11:31:31;;;;;;;34.45;31.73;;;6.90;99.90;;;;;;4955246;28;20046;-79
2024/01/28 11:34:21;;;;;;;33.92;31.35;;;7.10;99.90;;;;;;4969280;28;20054;-79
2024/01/28 11:36:53;;;;;;;33.05;30.05;;;7.00;99.90;;;;;;4957593;28;20136;-79
2024/01/28 11:39:45;;;;;;;31.83;29.30;;;7.20;99.90;;;;;;4960152;28;20059;-79
2024/01/28 11:42:13;;;;;;;40.35;37.45;;;7.40;99.90;;;;;;4964032;28;20045;-80
2024/01/28 11:44:41;;;;;;;40.97;37.67;;;7.50;99.90;;;;;;4951126;28;20062;-79
2024/01/28 11:47:14;;;;;;;43.30;39.78;;;7.60;99.90;;;;;;4980579;28;20101;-78
2024/01/28 11:49:44;;;;;;;43.92;40.80;;;7.70;99.90;;;;;;4976199;28;20046;-79
2024/01/28 11:52:11;;;;;;;42.58;39.08;;;7.60;99.90;;;;;;4964524;28;20518;-79
2024/01/28 11:54:38;;;;;;;39.63;36.85;;;7.60;99.90;;;;;;4971560;28;20042;-78
2024/01/28 11:57:06;;;;;;;38.92;36.17;;;7.50;99.90;;;;;;4968063;28;20129;-79
2024/01/28 11:59:33;;;;;;;38.70;36.20;;;7.60;99.90;;;;;;4959207;28;20143;-78
2024/01/28 12:02:02;;;;;;;39.22;36.55;;;7.70;99.90;;;;;;4952674;28;20795;-80
2024/01/28 12:04:30;;;;;;;38.97;35.95;;;7.70;99.90;;;;;;4986014;28;20029;-80
2024/01/28 12:06:57;;;;;;;39.05;36.17;;;7.80;99.90;;;;;;4983142;28;20074;-79
2024/01/28 12:09:24;;;;;;;38.42;35.85;;;7.80;99.90;;;;;;4990041;28;20046;-81
2024/01/28 12:11:52;;;;;;;37.25;34.83;;;7.90;99.90;;;;;;4971165;28;20046;-81
2024/01/28 12:14:19;;;;;;;39.72;37.03;;;7.90;99.90;;;;;;4972275;28;20056;-81
2024/01/28 12:16:46;;;;;;;39.15;36.30;;;8.10;99.90;;;;;;4960407;28;20044;-81
2024/01/28 12:19:13;;;;;;;36.67;34.22;;;8.10;99.90;;;;;;4959796;28;20137;-81
2024/01/28 12:21:42;;;;;;;42.50;39.20;;;8.00;99.90;;;;;;4958203;28;20112;-79
2024/01/28 12:24:09;;;;;;;36.70;33.83;;;8.00;99.90;;;;;;4950938;28;20640;-80
2024/01/28 12:26:36;;;;;;;39.20;36.17;;;8.10;99.90;;;;;;4971468;28;20050;-82
2024/01/28 12:29:03;;;;;;;37.30;34.38;;;8.20;99.90;;;;;;4961304;28;20034;-81
2024/01/28 12:31:31;;;;;;;36.60;33.95;;;8.20;99.90;;;;;;4987690;28;20041;-80
2024/01/28 12:33:58;;;;;;;39.05;36.33;;;8.30;99.90;;;;;;4972999;28;20125;-79
2024/01/28 12:36:25;;;;;;;36.67;33.92;;;8.50;99.90;;;;;;4969345;28;20049;-81